Time;durP1;ratioP1;P1;durP2;ratioP2;P2;SDS_P1;SDS_P2;PMS_P1;PMS_P2;Temp;Humidity;BMP_temperature;BMP_pressure;BME280_temperature;BME280_humidity;BME280_pressure;Samples;Min_cycle;Max_cycle;Signal;HPM_P1;HPM_P2
2021/12/21 00:00:17;;;;;;;1069.90;999.90;;;;;;;3.68;67.36;102171.09;689021;28;23414;-67
2021/12/21 00:00:39;;;;;;;1073.38;999.90;;;;;;;3.66;67.33;102167.69;687960;28;44264;-67
2021/12/21 00:01:00;;;;;;;1070.72;999.90;;;;;;;3.65;67.41;102169.47;686935;28;69317;-67
2021/12/21 00:01:21;;;;;;;1073.10;999.90;;;;;;;3.65;67.40;102171.28;688156;28;22205;-67
2021/12/21 00:01:43;;;;;;;1072.10;999.90;;;;;;;3.61;67.26;102166.13;688458;28;21519;-67
2021/12/21 00:02:04;;;;;;;1074.20;999.90;;;;;;;3.60;67.36;102175.13;687898;28;44436;-67
2021/12/21 00:02:26;;;;;;;1072.28;999.90;;;;;;;3.61;67.44;102175.97;688206;28;23007;-67
2021/12/21 00:02:49;;;;;;;1070.60;999.90;;;;;;;3.59;67.54;102172.56;687594;28;21521;-67
2021/12/21 00:03:11;;;;;;;1072.00;999.90;;;;;;;3.57;67.48;102161.97;685508;28;92897;-67
2021/12/21 00:03:32;;;;;;;1067.82;999.28;;;;;;;3.57;67.72;102161.97;687630;28;46279;-66
2021/12/21 00:03:53;;;;;;;1072.03;999.90;;;;;;;3.55;67.64;102174.53;688318;28;22395;-67
2021/12/21 00:04:15;;;;;;;1072.93;999.90;;;;;;;3.56;67.60;102170.06;688162;28;21518;-67
2021/12/21 00:04:37;;;;;;;1075.53;999.90;;;;;;;3.53;67.64;102168.44;688357;28;12964;-67
2021/12/21 00:04:58;;;;;;;1080.80;999.90;;;;;;;3.53;67.61;102170.28;687662;28;45256;-67
2021/12/21 00:05:21;;;;;;;1080.75;999.90;;;;;;;3.52;67.64;102168.53;688517;28;21416;-67
2021/12/21 00:05:45;;;;;;;1081.22;999.90;;;;;;;3.53;67.84;102164.94;685869;28;90398;-67
2021/12/21 00:06:06;;;;;;;1072.13;999.90;;;;;;;3.55;67.73;102173.69;686155;28;92366;-67
2021/12/21 00:06:27;;;;;;;1077.25;999.90;;;;;;;3.55;67.92;102171.88;688558;28;22272;-67
2021/12/21 00:06:49;;;;;;;1078.75;999.90;;;;;;;3.58;67.75;102174.34;687583;28;23471;-67
2021/12/21 00:07:10;;;;;;;1078.50;999.90;;;;;;;3.61;67.95;102181.31;687422;28;46319;-67
2021/12/21 00:07:31;;;;;;;1079.40;999.90;;;;;;;3.61;67.88;102179.50;688419;28;23437;-67
2021/12/21 00:07:53;;;;;;;1083.28;999.90;;;;;;;3.59;67.88;102164.53;686483;28;45234;-67
2021/12/21 00:08:17;;;;;;;1081.28;999.90;;;;;;;3.61;67.71;102170.63;687193;28;46843;-67
2021/12/21 00:08:38;;;;;;;1079.28;999.90;;;;;;;3.63;67.75;102168.72;686463;28;69387;-67
2021/12/21 00:08:59;;;;;;;1075.50;999.90;;;;;;;3.61;67.73;102167.97;688138;28;23426;-67
2021/12/21 00:09:20;;;;;;;1073.72;999.90;;;;;;;3.63;67.66;102170.53;687528;28;44339;-67
2021/12/21 00:09:42;;;;;;;1072.30;999.90;;;;;;;3.63;67.68;102175.88;687874;28;22413;-67
2021/12/21 00:10:04;;;;;;;1068.18;999.83;;;;;;;3.59;67.65;102168.06;687478;28;44369;-67
2021/12/21 00:10:27;;;;;;;1072.40;999.90;;;;;;;3.62;67.62;102164.34;688358;28;24247;-67
2021/12/21 00:10:48;;;;;;;1074.95;999.90;;;;;;;3.64;67.58;102161.56;686793;28;92321;-67
2021/12/21 00:11:10;;;;;;;1078.80;999.90;;;;;;;3.64;67.47;102165.09;688105;28;22455;-67
2021/12/21 00:11:35;;;;;;;1074.85;999.90;;;;;;;3.63;67.46;102165.19;688717;28;15004;-67
2021/12/21 00:11:58;;;;;;;1079.75;999.90;;;;;;;3.65;67.29;102160.59;686596;28;69720;-67
2021/12/21 00:12:23;;;;;;;1078.40;999.90;;;;;;;3.63;67.70;102160.69;687322;28;69010;-67
2021/12/21 00:13:00;;;;;;;1077.85;999.90;;;;;;;3.63;67.57;102155.34;683690;28;115778;-67
2021/12/21 00:13:35;;;;;;;1077.63;999.90;;;;;;;3.63;67.50;102160.69;684505;28;137371;-67
2021/12/21 00:14:14;;;;;;;1082.38;999.90;;;;;;;3.64;67.46;102165.09;683362;28;158806;-67
2021/12/21 00:14:44;;;;;;;1083.93;999.90;;;;;;;3.60;67.37;102161.78;684385;28;137372;-67
2021/12/21 00:15:18;;;;;;;1086.60;999.90;;;;;;;3.58;67.44;102163.66;684429;28;138175;-67
2021/12/21 00:15:53;;;;;;;1085.63;999.90;;;;;;;3.58;67.62;102152.97;684339;28;137961;-67
2021/12/21 00:16:26;;;;;;;1080.70;999.90;;;;;;;3.60;67.54;102159.09;684346;28;135993;-67
2021/12/21 00:17:07;;;;;;;1075.07;999.90;;;;;;;3.61;67.58;102167.97;684200;28;137572;-67
2021/12/21 00:17:48;;;;;;;1068.22;999.90;;;;;;;3.60;67.51;102167.13;687109;28;61057;-67
2021/12/21 00:18:21;;;;;;;1075.85;999.90;;;;;;;3.57;67.52;102159.28;688201;28;157286;-67
2021/12/21 00:18:50;;;;;;;1076.25;999.90;;;;;;;3.54;67.50;102156.81;689927;28;136215;-67
2021/12/21 00:19:36;;;;;;;1073.13;999.90;;;;;;;3.54;67.58;102156.81;692290;28;60060;-67
2021/12/21 00:20:11;;;;;;;1073.05;999.90;;;;;;;3.55;67.49;102163.00;689204;28;137557;-67
2021/12/21 00:20:46;;;;;;;1073.35;999.90;;;;;;;3.55;67.71;102155.84;689411;28;137429;-67
2021/12/21 00:21:19;;;;;;;1072.40;999.90;;;;;;;3.53;67.38;102154.25;688458;28;158787;-67
2021/12/21 00:21:43;;;;;;;1076.95;999.90;;;;;;;3.55;67.62;102153.16;689342;28;137396;-67
2021/12/21 00:22:11;;;;;;;1075.53;999.90;;;;;;;3.54;67.47;102154.16;690694;28;92254;-66
2021/12/21 00:23:10;;;;;;;1073.80;999.90;;;;;;;3.57;67.58;102161.97;688773;28;137859;-67
2021/12/21 00:23:32;;;;;;;1076.38;999.90;;;;;;;3.65;67.56;102156.09;686507;28;177385;-67
2021/12/21 00:23:58;;;;;;;1078.18;999.90;;;;;;;3.65;67.63;102156.09;689003;28;137876;-66
2021/12/21 00:24:23;;;;;;;1078.28;999.90;;;;;;;3.64;67.46;102153.53;688833;28;136214;-67
2021/12/21 00:24:47;;;;;;;1077.85;999.90;;;;;;;3.65;67.40;102156.09;690100;28;113979;-67
2021/12/21 00:25:09;;;;;;;1074.07;999.90;;;;;;;3.64;67.59;102149.06;690088;28;115860;-67
2021/12/21 00:25:30;;;;;;;1069.30;999.90;;;;;;;3.65;67.28;102161.44;692686;28;44315;-67
2021/12/21 00:25:51;;;;;;;1071.55;999.90;;;;;;;3.63;67.35;102151.84;693439;28;23479;-67
2021/12/21 00:26:15;;;;;;;1073.57;999.90;;;;;;;3.62;67.40;102153.66;693783;28;22133;-67
2021/12/21 00:26:37;;;;;;;1074.95;999.90;;;;;;;3.59;67.31;102153.84;690744;28;89754;-67
2021/12/21 00:27:00;;;;;;;1076.72;999.90;;;;;;;3.61;67.22;102163.47;692291;28;46295;-67
2021/12/21 00:27:21;;;;;;;1075.47;999.90;;;;;;;3.60;67.39;102155.56;691008;28;69714;-67
2021/12/21 00:27:44;;;;;;;1079.72;999.90;;;;;;;3.61;67.44;102157.28;691268;28;22393;-67
2021/12/21 00:28:06;;;;;;;1074.72;999.90;;;;;;;3.60;67.48;102160.91;689063;28;67887;-67
2021/12/21 00:28:33;;;;;;;1076.25;999.90;;;;;;;3.58;67.36;102157.47;690214;28;44538;-67
2021/12/21 00:28:57;;;;;;;1075.50;999.90;;;;;;;3.57;67.48;102164.63;687004;28;138150;-67
2021/12/21 00:29:20;;;;;;;1078.05;999.90;;;;;;;3.57;67.57;102161.09;688508;28;92167;-67
2021/12/21 00:29:41;;;;;;;1081.57;999.90;;;;;;;3.56;67.65;102159.41;688928;28;68178;-66
2021/12/21 00:30:03;;;;;;;1076.00;999.90;;;;;;;3.56;67.62;102154.03;690980;28;21528;-67
2021/12/21 00:30:25;;;;;;;1080.45;999.90;;;;;;;3.55;67.57;102161.19;690759;28;45269;-67
2021/12/21 00:30:47;;;;;;;1078.30;999.90;;;;;;;3.57;67.71;102158.41;690227;28;46520;-66
2021/12/21 00:31:08;;;;;;;1080.20;999.90;;;;;;;3.56;67.53;102165.59;690614;28;46514;-66
2021/12/21 00:31:31;;;;;;;1077.40;999.90;;;;;;;3.57;67.70;102159.28;690748;28;23463;-66
2021/12/21 00:31:52;;;;;;;1080.32;999.90;;;;;;;3.57;67.79;102158.41;689372;28;67325;-67
2021/12/21 00:32:17;;;;;;;1076.70;999.90;;;;;;;3.57;67.91;102159.28;690876;28;22342;-67
2021/12/21 00:32:38;;;;;;;1078.20;999.90;;;;;;;3.58;67.92;102154.81;687643;28;113828;-67
2021/12/21 00:32:59;;;;;;;1076.72;999.90;;;;;;;3.54;67.86;102151.47;688940;28;44364;-66
2021/12/21 00:33:20;;;;;;;1075.13;999.90;;;;;;;3.57;67.82;102155.75;690281;28;21451;-66
2021/12/21 00:33:46;;;;;;;1079.25;999.90;;;;;;;3.57;67.66;102150.41;688074;28;91921;-67
2021/12/21 00:34:08;;;;;;;1079.82;999.90;;;;;;;3.60;67.71;102156.44;688555;28;67308;-66
2021/12/21 00:34:29;;;;;;;1079.18;999.90;;;;;;;3.60;67.88;102159.09;689393;28;45095;-66
2021/12/21 00:34:50;;;;;;;1078.00;999.90;;;;;;;3.61;67.91;102154.59;690408;28;22414;-66
2021/12/21 00:35:12;;;;;;;1078.80;999.90;;;;;;;3.62;67.73;102153.66;690586;28;23472;-67
2021/12/21 00:35:34;;;;;;;1083.78;999.90;;;;;;;3.67;67.74;102156.00;689100;28;45218;-67
2021/12/21 00:35:55;;;;;;;1081.25;999.90;;;;;;;3.68;67.69;102147.06;689540;28;46253;-67
2021/12/21 00:36:20;;;;;;;1078.93;999.90;;;;;;;3.71;67.84;102150.38;690767;28;21506;-66
2021/12/21 00:36:41;;;;;;;1080.85;999.90;;;;;;;3.71;67.53;102147.72;686801;28;136458;-67
2021/12/21 00:37:03;;;;;;;1080.80;999.90;;;;;;;3.74;67.48;102152.84;690602;28;22478;-67
2021/12/21 00:37:27;;;;;;;1079.68;999.90;;;;;;;3.74;67.34;102152.00;689763;28;46381;-65
2021/12/21 00:37:48;;;;;;;1081.50;999.90;;;;;;;3.75;67.50;102151.06;687086;28;92186;-67
2021/12/21 00:38:10;;;;;;;1083.78;999.90;;;;;;;3.75;67.06;102151.91;690834;28;22394;-67
2021/12/21 00:38:32;;;;;;;1080.35;999.90;;;;;;;3.76;67.09;102152.75;689749;28;46167;-66
2021/12/21 00:38:54;;;;;;;1079.20;999.90;;;;;;;3.75;67.21;102151.91;689005;28;46516;-67
2021/12/21 00:39:16;;;;;;;1078.20;999.90;;;;;;;3.76;67.22;102155.44;689088;28;69217;-66
2021/12/21 00:39:38;;;;;;;1072.78;999.90;;;;;;;3.74;66.96;102146.66;689707;28;44367;-67
2021/12/21 00:39:59;;;;;;;1074.30;999.90;;;;;;;3.72;66.99;102145.91;690430;28;22191;-67
2021/12/21 00:40:20;;;;;;;1080.40;999.90;;;;;;;3.71;66.96;102155.72;690038;28;22366;-67
2021/12/21 00:40:42;;;;;;;1083.95;999.90;;;;;;;3.74;67.01;102157.34;690089;28;23515;-67
2021/12/21 00:41:03;;;;;;;1081.65;999.90;;;;;;;3.69;67.19;102146.09;689336;28;46313;-67
2021/12/21 00:41:26;;;;;;;1079.05;999.90;;;;;;;3.73;67.14;102152.94;689327;28;46272;-66
2021/12/21 00:41:48;;;;;;;1076.68;999.90;;;;;;;3.74;66.93;102149.34;689590;28;44358;-68
2021/12/21 00:42:09;;;;;;;1075.78;999.90;;;;;;;3.74;66.88;102147.50;689555;28;46309;-66
2021/12/21 00:42:30;;;;;;;1067.50;998.10;;;;;;;3.75;67.05;102148.38;691326;28;1498;-66
2021/12/21 00:42:51;;;;;;;1073.50;999.90;;;;;;;3.73;67.06;102147.59;689686;28;22399;-66
2021/12/21 00:43:13;;;;;;;1074.72;999.90;;;;;;;3.74;66.99;102142.16;690987;28;22376;-66
2021/12/21 00:43:35;;;;;;;1075.97;999.90;;;;;;;3.75;67.06;102149.25;689884;28;46326;-66
2021/12/21 00:43:56;;;;;;;1068.47;998.67;;;;;;;3.75;66.88;102145.72;689595;28;45112;-66
2021/12/21 00:44:18;;;;;;;1071.32;999.90;;;;;;;3.72;66.92;102149.44;690549;28;21514;-66
2021/12/21 00:44:40;;;;;;;1075.60;999.90;;;;;;;3.71;66.98;102147.72;689874;28;46323;-66
2021/12/21 00:45:01;;;;;;;1072.78;999.90;;;;;;;3.73;66.92;102144.94;689878;28;45041;-66
2021/12/21 00:45:22;;;;;;;1071.47;999.90;;;;;;;3.73;66.83;102145.81;691095;28;8881;-66
2021/12/21 00:45:43;;;;;;;1073.00;999.90;;;;;;;3.74;66.87;102144.00;690003;28;47047;-66
2021/12/21 00:46:06;;;;;;;1075.40;999.90;;;;;;;3.76;66.89;102144.75;690760;28;22378;-66
2021/12/21 00:46:27;;;;;;;1075.90;999.90;;;;;;;3.82;66.83;102138.16;689314;28;44503;-66
2021/12/21 00:46:48;;;;;;;1070.63;999.90;;;;;;;3.80;67.04;102146.28;690892;28;23440;-66
2021/12/21 00:47:09;;;;;;;1067.38;997.58;;;;;;;3.79;66.88;102141.88;690845;28;22408;-67
2021/12/21 00:47:33;;;;;;;1074.32;999.90;;;;;;;3.79;66.79;102144.53;690854;28;21548;-66
2021/12/21 00:47:55;;;;;;;1075.85;999.90;;;;;;;3.81;66.60;102141.78;686697;28;92274;-67
2021/12/21 00:48:16;;;;;;;1073.53;999.90;;;;;;;3.83;66.75;102140.72;690083;28;46506;-67
2021/12/21 00:48:47;;;;;;;1075.05;999.90;;;;;;;3.82;66.78;102143.50;689654;28;45639;-67
2021/12/21 00:49:15;;;;;;;1076.93;999.90;;;;;;;3.80;66.58;102138.25;686723;28;126265;-67
2021/12/21 00:49:37;;;;;;;1072.32;999.90;;;;;;;3.81;66.67;102141.78;685666;28;161143;-67
2021/12/21 00:49:58;;;;;;;1070.15;999.90;;;;;;;3.80;66.63;102140.94;689772;28;45255;-67
2021/12/21 00:50:22;;;;;;;1066.75;997.88;;;;;;;3.79;66.45;102136.53;689709;28;45240;-67
2021/12/21 00:50:44;;;;;;;1071.70;999.90;;;;;;;3.80;66.76;102143.59;689469;28;69518;-67
2021/12/21 00:51:06;;;;;;;1067.50;999.08;;;;;;;3.78;66.48;102140.19;689731;28;45206;-66
2021/12/21 00:51:29;;;;;;;1055.85;988.35;;;;;;;3.75;66.54;102140.38;689636;28;46144;-66
2021/12/21 00:51:50;;;;;;;1064.45;995.72;;;;;;;3.74;66.67;102138.66;688319;28;92092;-66
2021/12/21 00:52:15;;;;;;;1065.70;996.75;;;;;;;3.74;66.77;102139.50;690192;28;13625;-66
2021/12/21 00:52:36;;;;;;;1065.43;996.72;;;;;;;3.73;66.72;102144.94;689534;28;45101;-67
2021/12/21 00:52:58;;;;;;;1067.07;998.17;;;;;;;3.72;66.70;102145.91;689682;28;22376;-67
2021/12/21 00:53:19;;;;;;;1067.10;998.03;;;;;;;3.69;66.98;102141.59;690025;28;46294;-66
2021/12/21 00:53:41;;;;;;;1074.13;999.90;;;;;;;3.70;66.69;102145.13;691101;28;22387;-66
2021/12/21 00:54:02;;;;;;;1077.50;999.90;;;;;;;3.70;67.06;102146.00;689801;28;23135;-67
2021/12/21 00:54:24;;;;;;;1076.90;999.90;;;;;;;3.68;66.98;102147.91;690594;28;22329;-66
2021/12/21 00:54:45;;;;;;;1069.13;997.65;;;;;;;3.64;67.08;102146.41;689336;28;46298;-67
2021/12/21 00:55:07;;;;;;;1071.53;999.83;;;;;;;3.65;67.13;102142.75;690436;28;22397;-66
2021/12/21 00:55:28;;;;;;;1076.95;999.90;;;;;;;3.66;66.96;102139.13;689571;28;46565;-68
2021/12/21 00:55:49;;;;;;;1072.72;999.72;;;;;;;3.63;66.87;102136.66;690069;28;22189;-67
2021/12/21 00:56:12;;;;;;;1071.13;999.75;;;;;;;3.66;67.22;102143.63;690328;28;46307;-67
2021/12/21 00:56:33;;;;;;;1069.82;999.78;;;;;;;3.64;67.22;102141.06;689840;28;46323;-67
2021/12/21 00:56:54;;;;;;;1070.78;999.90;;;;;;;3.65;67.33;102144.56;690476;28;22306;-66
2021/12/21 00:57:15;;;;;;;1073.25;999.90;;;;;;;3.65;67.23;102137.41;691079;28;22389;-67
2021/12/21 00:57:36;;;;;;;1073.72;999.90;;;;;;;3.63;67.26;102141.16;689383;28;46332;-67
2021/12/21 00:57:58;;;;;;;1070.22;999.90;;;;;;;3.65;67.19;102136.56;689528;28;22187;-67
2021/12/21 00:58:20;;;;;;;1068.28;999.53;;;;;;;3.64;67.33;102140.19;689978;28;46319;-67
2021/12/21 00:58:41;;;;;;;1068.47;999.90;;;;;;;3.63;67.13;102142.00;690875;28;23480;-68
2021/12/21 00:59:02;;;;;;;1062.43;994.70;;;;;;;3.65;67.30;102145.41;690220;28;21213;-67
2021/12/21 00:59:24;;;;;;;1057.40;990.20;;;;;;;3.65;67.12;102133.88;690113;28;32305;-67
2021/12/21 00:59:45;;;;;;;1066.07;998.20;;;;;;;3.68;67.17;102141.72;689946;28;46254;-67
2021/12/21 01:00:08;;;;;;;1067.75;999.42;;;;;;;3.69;67.29;102143.44;690625;28;22414;-67
2021/12/21 01:00:31;;;;;;;1071.13;999.90;;;;;;;3.67;67.27;102137.31;688992;28;69487;-67
2021/12/21 01:00:53;;;;;;;1067.53;999.63;;;;;;;3.68;67.23;102139.88;689738;28;45225;-67
2021/12/21 01:01:14;;;;;;;1070.63;999.90;;;;;;;3.69;67.00;102141.59;689516;28;45277;-67
2021/12/21 01:01:36;;;;;;;1069.05;999.90;;;;;;;3.73;67.10;102137.81;689673;28;44337;-67
2021/12/21 01:01:58;;;;;;;1055.00;987.35;;;;;;;3.73;67.04;102139.59;689778;28;46262;-67
2021/12/21 01:02:19;;;;;;;1059.07;991.58;;;;;;;3.74;67.17;102138.66;690357;28;22379;-68
2021/12/21 01:02:42;;;;;;;1057.63;990.38;;;;;;;3.73;67.10;102136.91;690185;28;21470;-67
2021/12/21 01:03:08;;;;;;;1058.18;990.85;;;;;;;3.70;67.15;102139.78;688809;28;67231;-68
2021/12/21 01:03:30;;;;;;;1066.03;998.33;;;;;;;3.71;67.13;102136.16;686387;28;137827;-67
2021/12/21 01:03:53;;;;;;;1066.50;998.90;;;;;;;3.71;67.05;102142.34;690543;28;21528;-68
2021/12/21 01:04:22;;;;;;;1066.05;998.25;;;;;;;3.68;67.18;102144.38;691021;28;66576;-67
2021/12/21 01:04:47;;;;;;;1062.57;995.08;;;;;;;3.69;67.04;102146.09;689373;28;138169;-68
2021/12/21 01:05:16;;;;;;;1066.80;998.58;;;;;;;3.69;67.32;102146.09;688801;28;136433;-67
2021/12/21 01:05:45;;;;;;;1069.10;999.90;;;;;;;3.68;67.25;102153.25;689159;28;137564;-68
2021/12/21 01:06:12;;;;;;;1070.00;999.90;;;;;;;3.68;67.26;102144.38;687798;28;137812;-67
2021/12/21 01:06:41;;;;;;;1066.43;998.30;;;;;;;3.68;67.30;102150.56;686217;28;137528;-67
2021/12/21 01:07:10;;;;;;;1068.35;999.90;;;;;;;3.66;67.40;102146.31;686315;28;138007;-68
2021/12/21 01:07:36;;;;;;;1062.88;995.17;;;;;;;3.65;67.44;102139.22;685553;28;160814;-68
2021/12/21 01:07:59;;;;;;;1065.63;997.50;;;;;;;3.64;67.47;102157.09;685856;28;136273;-66
2021/12/21 01:08:26;;;;;;;1067.97;999.33;;;;;;;3.64;67.38;102145.53;687653;28;90708;-67
2021/12/21 01:09:01;;;;;;;1065.13;996.92;;;;;;;3.60;67.22;102143.06;687025;28;138757;-67
2021/12/21 01:09:46;;;;;;;1067.75;999.78;;;;;;;3.63;67.34;102149.16;688204;28;60293;-67
2021/12/21 01:10:42;;;;;;;1060.07;992.15;;;;;;;3.64;67.52;102156.22;685929;28;159998;-67
2021/12/21 01:11:09;;;;;;;1064.78;997.08;;;;;;;3.66;67.46;102157.00;686134;28;137299;-67
2021/12/21 01:11:33;;;;;;;1068.93;999.90;;;;;;;3.68;67.46;102152.41;686281;28;137608;-67
2021/12/21 01:11:59;;;;;;;1064.88;996.97;;;;;;;3.69;67.47;102154.97;687422;28;113196;-67
2021/12/21 01:12:35;;;;;;;1066.80;998.60;;;;;;;3.71;67.45;102153.06;686995;28;138658;-68
2021/12/21 01:13:10;;;;;;;1066.85;998.35;;;;;;;3.72;67.31;102151.25;685083;28;161372;-67
2021/12/21 01:14:49;;;;;;;1067.32;999.50;;;;;;;3.72;67.41;102148.59;684114;28;137393;-68
2021/12/21 01:15:06;;;;;;;1064.63;996.85;;;;;;;3.77;67.06;102146.47;686540;28;137670;-67
2021/12/21 01:15:45;;;;;;;1067.63;999.45;;;;;;;3.81;67.05;102148.00;686365;28;138502;-67
2021/12/21 01:16:30;;;;;;;1061.10;992.90;;;;;;;3.84;67.20;102139.78;685975;28;137640;-67
2021/12/21 01:17:02;;;;;;;1059.68;991.97;;;;;;;3.87;66.86;102138.72;686542;28;137118;-67
2021/12/21 01:17:28;;;;;;;1062.32;994.78;;;;;;;3.85;66.79;102135.28;686853;28;137569;-68
2021/12/21 01:17:57;;;;;;;1068.00;999.75;;;;;;;3.86;66.71;102143.22;685388;28;138117;-67
2021/12/21 01:18:22;;;;;;;1070.05;999.90;;;;;;;3.89;66.55;102144.84;686606;28;136076;-67
2021/12/21 01:18:59;;;;;;;1069.50;999.90;;;;;;;3.86;66.68;102132.53;686436;28;137830;-67
2021/12/21 01:19:29;;;;;;;1044.85;977.20;;;;;;;3.85;66.71;102140.63;686919;28;137708;-67
2021/12/21 01:20:00;;;;;;;1063.60;995.33;;;;;;;3.83;66.45;102137.22;686332;28;137765;-67
2021/12/21 01:20:33;;;;;;;1065.75;997.75;;;;;;;3.83;66.46;102132.72;686472;28;138660;-68
2021/12/21 01:21:05;;;;;;;1068.15;999.90;;;;;;;3.80;66.44;102127.56;686152;28;138335;-67
2021/12/21 01:21:30;;;;;;;1074.13;999.90;;;;;;;3.78;66.65;102132.16;686546;28;137750;-67
2021/12/21 01:22:02;;;;;;;1077.53;999.90;;;;;;;3.78;66.65;102129.50;686881;28;138090;-68
2021/12/21 01:22:38;;;;;;;1080.63;999.90;;;;;;;3.76;66.63;102128.72;687002;28;126294;-68
2021/12/21 01:24:05;;;;;;;1079.85;999.90;;;;;;;4.01;66.19;102127.13;678747;28;120803;-67
2021/12/21 01:24:43;;;;;;;1082.72;999.90;;;;;;;4.03;66.04;102128.75;678762;28;137560;-67
2021/12/21 01:25:19;;;;;;;1084.40;999.90;;;;;;;4.01;66.11;102129.81;685118;28;136016;-67
2021/12/21 01:25:45;;;;;;;1076.30;999.90;;;;;;;4.07;66.06;102124.91;689041;28;138355;-67
2021/12/21 01:26:13;;;;;;;1073.15;999.90;;;;;;;4.09;65.88;102132.81;689316;28;138767;-68
2021/12/21 01:26:44;;;;;;;1072.22;999.90;;;;;;;4.09;65.73;102133.69;688637;28;138418;-67
2021/12/21 01:27:23;;;;;;;1072.38;999.90;;;;;;;4.07;65.80;102132.06;686345;28;137679;-67
2021/12/21 01:27:56;;;;;;;1071.78;999.55;;;;;;;4.09;65.52;102133.69;685328;28;135841;-67
2021/12/21 01:28:24;;;;;;;1068.38;996.67;;;;;;;4.11;65.80;102129.09;686662;28;137713;-67
2021/12/21 01:28:51;;;;;;;1075.90;999.90;;;;;;;4.12;65.32;102120.13;689035;28;137823;-67
2021/12/21 01:29:22;;;;;;;1079.57;999.90;;;;;;;4.09;65.32;102127.47;689542;28;138039;-67
2021/12/21 01:29:53;;;;;;;1076.30;999.90;;;;;;;4.05;65.37;102129.50;689962;28;123770;-67
2021/12/21 01:30:24;;;;;;;1069.10;997.20;;;;;;;4.05;65.44;102128.66;691664;28;70563;-67
2021/12/21 01:30:52;;;;;;;1065.95;994.25;;;;;;;4.04;65.57;102127.78;689210;28;138566;-67
2021/12/21 01:31:26;;;;;;;1068.45;996.55;;;;;;;4.01;65.27;102127.97;689226;28;136669;-67
2021/12/21 01:31:55;;;;;;;1069.15;997.35;;;;;;;4.01;65.54;102127.97;689395;28;137710;-67
2021/12/21 01:32:25;;;;;;;1074.53;999.90;;;;;;;4.03;65.62;102119.84;688910;28;137669;-67
2021/12/21 01:33:00;;;;;;;1075.63;999.90;;;;;;;4.00;65.60;102120.06;687719;28;120491;-67
2021/12/21 01:33:37;;;;;;;1074.80;999.90;;;;;;;3.98;65.74;102117.47;687665;28;114930;-67
2021/12/21 01:34:13;;;;;;;1076.82;999.90;;;;;;;3.94;65.57;102118.66;686076;28;135782;-67
2021/12/21 01:34:48;;;;;;;1076.55;999.90;;;;;;;3.97;65.46;102116.63;686637;28;137226;-67
2021/12/21 01:35:14;;;;;;;1071.15;999.35;;;;;;;3.95;65.90;102121.22;686335;28;137595;-67
2021/12/21 01:35:40;;;;;;;1056.88;985.58;;;;;;;3.97;65.52;102118.47;686735;28;137982;-67
2021/12/21 01:36:04;;;;;;;1055.20;984.03;;;;;;;4.00;65.63;102110.25;686223;28;138997;-67
2021/12/21 01:36:35;;;;;;;1063.80;992.20;;;;;;;3.98;65.81;102112.13;688784;28;67605;-67
2021/12/21 01:36:59;;;;;;;1072.93;999.90;;;;;;;3.95;65.66;102115.03;686311;28;138757;-67
2021/12/21 01:37:26;;;;;;;1075.03;999.90;;;;;;;3.93;65.68;102109.78;690985;28;13504;-67
2021/12/21 01:37:55;;;;;;;1075.30;999.90;;;;;;;3.91;65.60;102116.19;685410;28;137794;-67
2021/12/21 01:38:25;;;;;;;1056.57;985.10;;;;;;;3.87;65.69;102114.66;686862;28;137523;-67
2021/12/21 01:38:58;;;;;;;1057.82;986.47;;;;;;;3.86;65.96;102113.81;689564;28;60023;-67
2021/12/21 01:39:49;;;;;;;1065.50;993.70;;;;;;;3.86;65.89;102119.16;686358;28;135938;-67
2021/12/21 01:40:26;;;;;;;1066.32;994.63;;;;;;;3.84;65.97;102120.19;686393;28;137589;-67
2021/12/21 01:40:54;;;;;;;1067.18;995.30;;;;;;;3.78;66.19;102106.28;687600;28;120239;-67
2021/12/21 01:41:26;;;;;;;1064.05;992.33;;;;;;;3.78;65.87;102110.78;686825;28;137734;-67
2021/12/21 01:42:02;;;;;;;1069.30;997.30;;;;;;;3.73;66.20;102108.41;687134;28;137527;-67
2021/12/21 01:42:34;;;;;;;1071.88;999.65;;;;;;;3.72;66.46;102113.84;686420;28;138016;-67
2021/12/21 01:43:16;;;;;;;1075.43;999.90;;;;;;;3.68;66.39;102113.16;690710;28;61125;-68
2021/12/21 01:43:42;;;;;;;1075.93;999.90;;;;;;;3.66;66.53;102103.56;691446;28;75129;-68
2021/12/21 01:44:19;;;;;;;1064.90;993.10;;;;;;;3.67;66.86;102116.81;688982;28;133998;-67
2021/12/21 01:49:34;;;;;;;1069.45;997.53;;;;;;;3.65;66.57;102117.84;689298;28;137541;-66
2021/12/21 01:49:39;;;;;;;1078.93;999.90;;;;;;;3.61;66.53;102120.72;689281;28;137515;-67
2021/12/21 01:50:04;;;;;;;1083.15;999.90;;;;;;;3.62;66.77;102121.59;689205;28;138279;-67
2021/12/21 01:50:26;;;;;;;1053.75;982.40;;;;;;;3.61;66.95;102127.88;690101;28;108785;-67
2021/12/21 01:50:47;;;;;;;1053.47;982.20;;;;;;;3.60;67.06;102121.69;693152;28;23472;-67
2021/12/21 01:51:08;;;;;;;1072.80;999.90;;;;;;;3.66;67.04;102127.59;692831;28;22189;-67
2021/12/21 01:51:31;;;;;;;1076.05;999.90;;;;;;;3.65;67.08;102120.53;692980;28;23554;-67
2021/12/21 01:51:52;;;;;;;1076.18;999.90;;;;;;;3.65;67.17;102124.03;692100;28;67488;-67
2021/12/21 01:52:16;;;;;;;1082.72;999.90;;;;;;;3.64;67.05;102124.16;693637;28;21606;-67
2021/12/21 01:52:37;;;;;;;1081.30;999.90;;;;;;;3.63;66.94;102120.63;690830;28;92111;-67
2021/12/21 01:52:59;;;;;;;1081.72;999.90;;;;;;;3.60;67.25;102124.38;688717;28;42257;-67
2021/12/21 01:53:20;;;;;;;1079.40;999.90;;;;;;;3.62;66.96;102129.63;690140;28;46702;-67
2021/12/21 01:53:45;;;;;;;1084.95;999.90;;;;;;;3.61;66.98;102126.06;690321;28;22364;-67
2021/12/21 01:54:07;;;;;;;1089.80;999.90;;;;;;;3.61;66.93;102126.06;685423;28;138800;-67
2021/12/21 01:54:29;;;;;;;1090.55;999.90;;;;;;;3.60;66.95;102127.03;690080;28;22386;-67
2021/12/21 01:54:53;;;;;;;1097.60;999.90;;;;;;;3.58;67.04;102126.25;689388;28;46332;-67
2021/12/21 01:55:15;;;;;;;1099.65;999.90;;;;;;;3.57;66.89;102129.91;687445;28;115789;-68
2021/12/21 01:55:36;;;;;;;1096.68;999.90;;;;;;;3.57;67.00;102127.25;690887;28;22232;-68
2021/12/21 01:56:01;;;;;;;1094.55;999.90;;;;;;;3.57;67.21;102134.38;690732;28;22444;-68
2021/12/21 01:56:24;;;;;;;1096.70;999.90;;;;;;;3.55;67.20;102114.91;686423;28;136429;-68
2021/12/21 01:56:45;;;;;;;1093.60;999.90;;;;;;;3.54;67.33;102129.22;690151;28;46274;-68
2021/12/21 01:57:07;;;;;;;1098.68;999.90;;;;;;;3.51;67.18;102119.59;690580;28;22246;-67
2021/12/21 01:57:28;;;;;;;1097.88;999.90;;;;;;;3.53;67.29;102132.88;688720;28;69146;-68
2021/12/21 01:57:50;;;;;;;1105.20;999.90;;;;;;;3.51;67.29;102130.28;689318;28;22298;-68
2021/12/21 01:58:11;;;;;;;1112.15;999.90;;;;;;;3.52;67.51;102123.97;690898;28;22387;-68
2021/12/21 01:58:33;;;;;;;1112.40;999.90;;;;;;;3.52;67.39;102123.13;690805;28;23463;-67
2021/12/21 01:58:55;;;;;;;1114.85;999.90;;;;;;;3.52;67.40;102125.81;688623;28;69785;-68
2021/12/21 01:59:16;;;;;;;1112.18;999.90;;;;;;;3.52;67.40;102121.31;690093;28;23353;-67
2021/12/21 01:59:38;;;;;;;1114.25;999.90;;;;;;;3.53;67.33;102115.00;690279;28;22406;-68
2021/12/21 02:00:00;;;;;;;1117.47;999.90;;;;;;;3.53;67.51;102125.69;688241;28;44126;-68
2021/12/21 02:00:21;;;;;;;1113.13;999.90;;;;;;;3.52;67.75;102117.78;688523;28;46296;-68
2021/12/21 02:00:42;;;;;;;1114.32;999.90;;;;;;;3.56;67.57;102119.31;689522;28;21532;-67
2021/12/21 02:01:04;;;;;;;1110.85;999.90;;;;;;;3.61;67.50;102122.53;689927;28;44364;-67
2021/12/21 02:01:27;;;;;;;1106.13;999.90;;;;;;;3.61;67.50;102118.06;689853;28;44324;-68